Time,TemperatureF,DewpointF,PressureIn,WindDirection,WindDirectionDegrees,WindSpeedMPH,WindSpeedGustMPH,Humidity,HourlyPrecipIn,Conditions,Clouds,dailyrainin,SoftwareType,DateUTC
2013-09-20 00:21:00,45.0,35.0,30.27,NNW,346,5.0,7.0,68,0.00,,,0.00,,2013-09-20 06:21:00,
2013-09-20 00:52:00,44.0,34.0,30.27,NNW,342,7.0,8.0,69,0.00,,,0.00,,2013-09-20 06:52:00,
2013-09-20 01:22:00,44.0,35.0,30.27,NNW,346,6.0,7.0,70,0.00,,,0.00,,2013-09-20 07:22:00,
2013-09-20 01:52:00,43.0,34.0,30.27,North,356,5.0,7.0,70,0.00,,,0.00,,2013-09-20 07:52:00,
2013-09-20 02:21:00,43.0,34.0,30.27,NNW,337,7.0,9.0,70,0.00,,,0.00,,2013-09-20 08:21:00,
2013-09-20 02:52:00,43.0,34.0,30.27,North,351,6.0,8.0,70,0.00,,,0.00,,2013-09-20 08:52:00,
2013-09-20 03:22:00,43.0,34.0,30.27,North,355,7.0,9.0,71,0.00,,,0.00,,2013-09-20 09:22:00,
2013-09-20 03:53:00,42.0,33.0,30.27,North,349,7.0,9.0,70,0.00,,,0.00,,2013-09-20 09:53:00,
2013-09-20 04:23:00,41.0,33.0,30.26,NNW,347,6.0,9.0,72,0.00,,,0.00,,2013-09-20 10:23:00,
2013-09-20 04:53:00,41.0,33.0,30.26,NNW,340,6.0,9.0,72,0.00,,,0.00,,2013-09-20 10:53:00,
2013-09-20 05:23:00,42.0,33.0,30.27,NNW,345,6.0,8.0,71,0.00,,,0.00,,2013-09-20 11:23:00,
2013-09-20 05:52:00,41.0,32.0,30.27,NNW,337,5.0,7.0,71,0.00,,,0.00,,2013-09-20 11:52:00,
2013-09-20 06:22:00,41.0,32.0,30.28,NNW,338,7.0,9.0,71,0.00,,,0.00,,2013-09-20 12:22:00,
2013-09-20 06:52:00,41.0,32.0,30.28,North,351,7.0,9.0,70,0.00,,,0.00,,2013-09-20 12:52:00,
2013-09-20 07:21:00,40.0,32.0,30.29,NNW,348,7.0,10.0,73,0.00,,,0.00,,2013-09-20 13:21:00,
2013-09-20 07:52:00,40.0,31.0,30.29,North,353,7.0,10.0,71,0.00,,,0.00,,2013-09-20 13:52:00,
2013-09-20 08:21:00,43.0,32.0,30.30,North,3,5.0,9.0,66,0.00,,,0.00,,2013-09-20 14:21:00,
2013-09-20 08:52:00,46.0,34.0,30.30,NE,34,5.0,9.0,62,0.00,,,0.00,,2013-09-20 14:52:00,
2013-09-20 09:21:00,49.0,34.0,30.30,NE,47,3.0,5.0,56,0.00,,,0.00,,2013-09-20 15:21:00,
2013-09-20 09:53:00,52.0,34.0,30.30,NE,50,0.0,0.0,51,0.00,,,0.00,,2013-09-20 15:53:00,
2013-09-20 10:23:00,55.0,36.0,30.30,ENE,78,2.0,3.0,48,0.00,,,0.00,,2013-09-20 16:23:00,
2013-09-20 10:52:00,61.0,36.0,30.30,ESE,107,2.0,6.0,40,0.00,,,0.00,,2013-09-20 16:52:00,
2013-09-20 11:23:00,62.0,32.0,30.30,NNW,337,5.0,8.0,32,0.00,,,0.00,,2013-09-20 17:23:00,
2013-09-20 11:53:00,61.0,30.0,30.30,WNW,299,6.0,8.0,31,0.00,,,0.00,,2013-09-20 17:53:00,
2013-09-20 12:22:00,63.0,30.0,30.29,NNW,344,5.0,5.0,29,0.00,,,0.00,,2013-09-20 18:22:00,
2013-09-20 12:52:00,64.0,31.0,30.29,West,273,3.0,10.0,29,0.00,,,0.00,,2013-09-20 18:52:00,
2013-09-20 13:22:00,64.0,30.0,30.29,West,272,2.0,7.0,28,0.00,,,0.00,,2013-09-20 19:22:00,
2013-09-20 13:52:00,65.0,30.0,30.28,North,350,5.0,7.0,27,0.00,,,0.00,,2013-09-20 19:52:00,
2013-09-20 14:22:00,70.0,35.0,30.27,ESE,115,9.0,12.0,28,0.00,,,0.00,,2013-09-20 20:22:00,
2013-09-20 14:52:00,69.0,34.0,30.27,NW,315,2.0,3.0,27,0.00,,,0.00,,2013-09-20 20:52:00,
2013-09-20 15:21:00,71.0,36.0,30.26,South,173,5.0,5.0,28,0.00,,,0.00,,2013-09-20 21:21:00,
2013-09-20 16:53:00,72.0,38.0,30.25,South,172,3.0,6.0,29,0.00,,,0.00,,2013-09-20 22:53:00,
2013-09-20 17:22:00,68.0,39.0,30.25,SSW,204,2.0,2.0,35,0.00,,,0.00,,2013-09-20 23:22:00,
2013-09-20 17:53:00,70.0,39.0,30.25,SSW,205,0.0,3.0,32,0.00,,,0.00,,2013-09-20 23:53:00,
2013-09-20 18:52:00,68.0,38.0,30.25,SSW,196,0.0,0.0,33,0.00,,,0.00,,2013-09-21 00:52:00,
2013-09-20 19:22:00,59.0,34.0,30.25,WNW,303,2.0,5.0,39,0.00,,,0.00,,2013-09-21 01:22:00,
2013-09-20 19:52:00,56.0,33.0,30.25,NW,319,5.0,7.0,42,0.00,,,0.00,,2013-09-21 01:52:00,
2013-09-20 20:22:00,54.0,34.0,30.26,NNW,337,0.0,0.0,46,0.00,,,0.00,,2013-09-21 02:22:00,
2013-09-20 20:52:00,52.0,32.0,30.27,NNW,337,0.0,0.0,47,0.00,,,0.00,,2013-09-21 02:52:00,
2013-09-20 21:22:00,51.0,33.0,30.28,North,2,5.0,7.0,50,0.00,,,0.00,,2013-09-21 03:22:00,
2013-09-20 21:54:00,50.0,34.0,30.29,North,353,6.0,8.0,55,0.00,,,0.00,,2013-09-21 03:54:00,
2013-09-20 22:24:00,49.0,34.0,30.29,NNW,342,6.0,8.0,57,0.00,,,0.00,,2013-09-21 04:24:00,
2013-09-20 22:54:00,48.0,33.0,30.29,North,352,6.0,8.0,56,0.00,,,0.00,,2013-09-21 04:54:00,
2013-09-20 23:23:00,48.0,34.0,30.29,North,10,6.0,7.0,57,0.00,,,0.00,,2013-09-21 05:23:00,
2013-09-20 23:52:00,47.0,33.0,30.29,North,0,6.0,8.0,57,0.00,,,0.00,,2013-09-21 05:52:00,